< < Back
Terminal Aerodrome Forecast


Current Version              Previous Versions:   1  2  3  4  5  6  7  8  9  

Terminal Aerodrome Forecast

023
FTUS42 KFFC 221000 AAC
TAFCSG
TAF AMD
KCSG 221031Z 2211/2306 07003KT P6SM BKN009
      TEMPO 2211/2214 3SM -SHRA BR SCT009 BKN015
     FM221400 00000KT P6SM BKN025
     FM221600 12005KT P6SM VCSH SCT025 BKN035
      TEMPO 2219/2223 5SM -TSRA BR BKN015CB
     FM230000 10005KT P6SM SCT040 BKN120=



Latest METAR

624
SAUS70 KWBC 230600 RRA
MTRCSG
METAR KCSG 230551Z AUTO 00000KT 10SM CLR 23/22 A3006 RMK AO2 SLP175
T02280217 10256 20228 56010


USA.gov is the U.S. government's official web portal to all federal, state and local government web resources and services.